sensor_id;sensor_type;location;lat;lon;timestamp;P1;durP1;ratioP1;P2;durP2;ratioP2
19189;SDS011;9727;50.200;19.038;2023-08-20T00:01:17;21.63;;;18.75;;
19189;SDS011;9727;50.200;19.038;2023-08-20T00:03:46;21.52;;;18.75;;
19189;SDS011;9727;50.200;19.038;2023-08-20T00:06:13;20.30;;;18.17;;
19189;SDS011;9727;50.200;19.038;2023-08-20T00:08:39;21.58;;;18.77;;
19189;SDS011;9727;50.200;19.038;2023-08-20T00:11:07;20.05;;;17.70;;
19189;SDS011;9727;50.200;19.038;2023-08-20T00:13:37;24.27;;;19.35;;
19189;SDS011;9727;50.200;19.038;2023-08-20T00:16:04;21.27;;;18.95;;
19189;SDS011;9727;50.200;19.038;2023-08-20T00:18:32;22.35;;;19.05;;
19189;SDS011;9727;50.200;19.038;2023-08-20T00:21:02;25.45;;;18.80;;
19189;SDS011;9727;50.200;19.038;2023-08-20T00:23:29;21.50;;;18.55;;
19189;SDS011;9727;50.200;19.038;2023-08-20T00:25:56;22.20;;;19.80;;
19189;SDS011;9727;50.200;19.038;2023-08-20T00:28:24;21.65;;;19.35;;
19189;SDS011;9727;50.200;19.038;2023-08-20T00:30:51;22.33;;;19.92;;
19189;SDS011;9727;50.200;19.038;2023-08-20T00:33:17;21.60;;;19.27;;
19189;SDS011;9727;50.200;19.038;2023-08-20T00:35:44;22.88;;;19.00;;
19189;SDS011;9727;50.200;19.038;2023-08-20T00:38:10;21.38;;;19.05;;
19189;SDS011;9727;50.200;19.038;2023-08-20T00:40:37;22.70;;;20.30;;
19189;SDS011;9727;50.200;19.038;2023-08-20T00:43:04;25.88;;;20.67;;
19189;SDS011;9727;50.200;19.038;2023-08-20T00:45:32;22.85;;;20.33;;
19189;SDS011;9727;50.200;19.038;2023-08-20T00:48:04;22.08;;;19.75;;
19189;SDS011;9727;50.200;19.038;2023-08-20T00:50:31;21.90;;;19.60;;
19189;SDS011;9727;50.200;19.038;2023-08-20T00:53:04;24.27;;;20.02;;
19189;SDS011;9727;50.200;19.038;2023-08-20T00:55:30;24.85;;;21.10;;
19189;SDS011;9727;50.200;19.038;2023-08-20T00:57:57;23.55;;;20.70;;
19189;SDS011;9727;50.200;19.038;2023-08-20T01:00:23;22.33;;;20.00;;
19189;SDS011;9727;50.200;19.038;2023-08-20T01:02:51;23.20;;;19.65;;
19189;SDS011;9727;50.200;19.038;2023-08-20T01:05:18;22.70;;;20.35;;
19189;SDS011;9727;50.200;19.038;2023-08-20T01:07:58;23.30;;;20.55;;
19189;SDS011;9727;50.200;19.038;2023-08-20T01:10:29;25.45;;;20.00;;
19189;SDS011;9727;50.200;19.038;2023-08-20T01:12:57;24.70;;;21.48;;
19189;SDS011;9727;50.200;19.038;2023-08-20T01:15:24;25.83;;;21.30;;
19189;SDS011;9727;50.200;19.038;2023-08-20T01:17:52;26.38;;;20.55;;
19189;SDS011;9727;50.200;19.038;2023-08-20T01:20:18;23.05;;;20.55;;
19189;SDS011;9727;50.200;19.038;2023-08-20T01:25:42;23.85;;;20.45;;
19189;SDS011;9727;50.200;19.038;2023-08-20T01:28:27;24.90;;;19.85;;
19189;SDS011;9727;50.200;19.038;2023-08-20T01:30:54;23.60;;;21.15;;
19189;SDS011;9727;50.200;19.038;2023-08-20T01:33:22;26.20;;;21.02;;
19189;SDS011;9727;50.200;19.038;2023-08-20T01:35:49;25.98;;;20.77;;
19189;SDS011;9727;50.200;19.038;2023-08-20T01:38:16;26.20;;;21.20;;
19189;SDS011;9727;50.200;19.038;2023-08-20T01:40:43;25.25;;;21.73;;
19189;SDS011;9727;50.200;19.038;2023-08-20T01:43:10;25.88;;;21.90;;
19189;SDS011;9727;50.200;19.038;2023-08-20T01:45:38;24.77;;;21.42;;
19189;SDS011;9727;50.200;19.038;2023-08-20T01:48:04;22.58;;;20.05;;
19189;SDS011;9727;50.200;19.038;2023-08-20T01:50:31;23.42;;;20.77;;
19189;SDS011;9727;50.200;19.038;2023-08-20T01:52:57;22.05;;;19.65;;
19189;SDS011;9727;50.200;19.038;2023-08-20T01:55:24;22.65;;;20.20;;
19189;SDS011;9727;50.200;19.038;2023-08-20T01:57:50;25.13;;;21.55;;
19189;SDS011;9727;50.200;19.038;2023-08-20T02:00:17;23.80;;;21.10;;
19189;SDS011;9727;50.200;19.038;2023-08-20T02:02:45;23.58;;;21.08;;
19189;SDS011;9727;50.200;19.038;2023-08-20T02:05:11;27.45;;;22.00;;
19189;SDS011;9727;50.200;19.038;2023-08-20T02:07:38;27.60;;;22.23;;
19189;SDS011;9727;50.200;19.038;2023-08-20T02:10:05;25.83;;;21.52;;
19189;SDS011;9727;50.200;19.038;2023-08-20T02:12:32;23.70;;;21.08;;
19189;SDS011;9727;50.200;19.038;2023-08-20T02:15:00;25.90;;;21.30;;
19189;SDS011;9727;50.200;19.038;2023-08-20T02:17:28;24.75;;;21.23;;
19189;SDS011;9727;50.200;19.038;2023-08-20T02:19:56;26.52;;;22.48;;
19189;SDS011;9727;50.200;19.038;2023-08-20T02:22:23;27.77;;;23.33;;
19189;SDS011;9727;50.200;19.038;2023-08-20T02:24:49;25.92;;;22.27;;
19189;SDS011;9727;50.200;19.038;2023-08-20T02:27:16;27.15;;;22.77;;
19189;SDS011;9727;50.200;19.038;2023-08-20T02:29:42;26.67;;;23.65;;
19189;SDS011;9727;50.200;19.038;2023-08-20T02:32:10;25.00;;;22.30;;
19189;SDS011;9727;50.200;19.038;2023-08-20T02:34:37;26.73;;;22.55;;
19189;SDS011;9727;50.200;19.038;2023-08-20T02:37:05;28.05;;;24.17;;
19189;SDS011;9727;50.200;19.038;2023-08-20T02:39:32;28.52;;;23.33;;
19189;SDS011;9727;50.200;19.038;2023-08-20T02:42:04;27.58;;;22.73;;
19189;SDS011;9727;50.200;19.038;2023-08-20T02:44:31;26.33;;;23.52;;
19189;SDS011;9727;50.200;19.038;2023-08-20T02:46:57;26.90;;;23.50;;
19189;SDS011;9727;50.200;19.038;2023-08-20T02:49:24;26.90;;;23.33;;
19189;SDS011;9727;50.200;19.038;2023-08-20T02:51:51;29.40;;;24.10;;
19189;SDS011;9727;50.200;19.038;2023-08-20T02:54:19;27.50;;;23.92;;
19189;SDS011;9727;50.200;19.038;2023-08-20T02:56:46;31.40;;;24.90;;
19189;SDS011;9727;50.200;19.038;2023-08-20T02:59:12;28.10;;;24.67;;
19189;SDS011;9727;50.200;19.038;2023-08-20T03:01:39;32.10;;;26.20;;
19189;SDS011;9727;50.200;19.038;2023-08-20T03:04:05;29.13;;;26.17;;
19189;SDS011;9727;50.200;19.038;2023-08-20T03:06:32;29.08;;;26.05;;
19189;SDS011;9727;50.200;19.038;2023-08-20T03:09:02;33.15;;;27.30;;
19189;SDS011;9727;50.200;19.038;2023-08-20T03:11:30;34.38;;;27.83;;
19189;SDS011;9727;50.200;19.038;2023-08-20T03:13:57;28.20;;;25.20;;
19189;SDS011;9727;50.200;19.038;2023-08-20T03:16:23;31.45;;;25.75;;
19189;SDS011;9727;50.200;19.038;2023-08-20T03:18:50;29.48;;;25.23;;
19189;SDS011;9727;50.200;19.038;2023-08-20T03:21:16;28.88;;;25.20;;
19189;SDS011;9727;50.200;19.038;2023-08-20T03:23:43;27.98;;;24.98;;
19189;SDS011;9727;50.200;19.038;2023-08-20T03:26:10;29.13;;;26.10;;
19189;SDS011;9727;50.200;19.038;2023-08-20T03:28:38;30.25;;;26.08;;
19189;SDS011;9727;50.200;19.038;2023-08-20T03:31:04;28.33;;;24.70;;
19189;SDS011;9727;50.200;19.038;2023-08-20T03:33:31;29.33;;;24.98;;
19189;SDS011;9727;50.200;19.038;2023-08-20T03:35:57;28.20;;;25.30;;
19189;SDS011;9727;50.200;19.038;2023-08-20T03:38:24;27.17;;;24.20;;
19189;SDS011;9727;50.200;19.038;2023-08-20T03:40:51;29.83;;;26.00;;
19189;SDS011;9727;50.200;19.038;2023-08-20T03:43:17;27.65;;;24.63;;
19189;SDS011;9727;50.200;19.038;2023-08-20T03:45:45;28.85;;;25.73;;
19189;SDS011;9727;50.200;19.038;2023-08-20T03:48:15;28.23;;;24.17;;
19189;SDS011;9727;50.200;19.038;2023-08-20T03:50:42;28.23;;;25.17;;
19189;SDS011;9727;50.200;19.038;2023-08-20T03:53:08;28.55;;;25.55;;
19189;SDS011;9727;50.200;19.038;2023-08-20T03:55:37;28.48;;;24.92;;
19189;SDS011;9727;50.200;19.038;2023-08-20T03:58:04;29.30;;;25.40;;
19189;SDS011;9727;50.200;19.038;2023-08-20T04:00:31;28.75;;;25.65;;
19189;SDS011;9727;50.200;19.038;2023-08-20T04:02:59;32.33;;;27.30;;
19189;SDS011;9727;50.200;19.038;2023-08-20T04:05:25;29.73;;;25.25;;
19189;SDS011;9727;50.200;19.038;2023-08-20T04:07:52;28.40;;;25.40;;
19189;SDS011;9727;50.200;19.038;2023-08-20T04:10:18;28.42;;;25.48;;
19189;SDS011;9727;50.200;19.038;2023-08-20T04:12:44;29.30;;;25.88;;
19189;SDS011;9727;50.200;19.038;2023-08-20T04:15:11;29.42;;;26.42;;
19189;SDS011;9727;50.200;19.038;2023-08-20T04:17:38;32.35;;;27.85;;
19189;SDS011;9727;50.200;19.038;2023-08-20T04:20:06;29.65;;;25.35;;
19189;SDS011;9727;50.200;19.038;2023-08-20T04:22:39;29.05;;;25.95;;
19189;SDS011;9727;50.200;19.038;2023-08-20T04:25:06;28.90;;;25.45;;
19189;SDS011;9727;50.200;19.038;2023-08-20T04:27:38;28.45;;;25.42;;
19189;SDS011;9727;50.200;19.038;2023-08-20T04:30:06;28.85;;;25.73;;
19189;SDS011;9727;50.200;19.038;2023-08-20T04:32:32;28.35;;;24.23;;
19189;SDS011;9727;50.200;19.038;2023-08-20T04:35:10;27.85;;;23.52;;
19189;SDS011;9727;50.200;19.038;2023-08-20T04:37:38;28.17;;;25.23;;
19189;SDS011;9727;50.200;19.038;2023-08-20T04:40:05;26.63;;;23.90;;
19189;SDS011;9727;50.200;19.038;2023-08-20T04:42:36;27.25;;;24.33;;
19189;SDS011;9727;50.200;19.038;2023-08-20T04:45:03;29.95;;;24.60;;
19189;SDS011;9727;50.200;19.038;2023-08-20T04:47:30;26.73;;;23.98;;
19189;SDS011;9727;50.200;19.038;2023-08-20T04:49:56;27.90;;;23.63;;
19189;SDS011;9727;50.200;19.038;2023-08-20T04:52:25;28.48;;;23.35;;
19189;SDS011;9727;50.200;19.038;2023-08-20T04:54:51;25.92;;;23.17;;
19189;SDS011;9727;50.200;19.038;2023-08-20T04:57:18;26.52;;;23.52;;
19189;SDS011;9727;50.200;19.038;2023-08-20T04:59:44;26.38;;;23.58;;
19189;SDS011;9727;50.200;19.038;2023-08-20T05:02:11;25.85;;;23.15;;
19189;SDS011;9727;50.200;19.038;2023-08-20T05:04:37;26.25;;;23.42;;
19189;SDS011;9727;50.200;19.038;2023-08-20T05:07:04;27.40;;;24.42;;
19189;SDS011;9727;50.200;19.038;2023-08-20T05:09:32;31.35;;;24.20;;
19189;SDS011;9727;50.200;19.038;2023-08-20T05:12:04;29.90;;;24.73;;
19189;SDS011;9727;50.200;19.038;2023-08-20T05:14:31;28.65;;;25.25;;
19189;SDS011;9727;50.200;19.038;2023-08-20T05:16:58;26.67;;;23.88;;
19189;SDS011;9727;50.200;19.038;2023-08-20T05:19:24;26.52;;;22.85;;
19189;SDS011;9727;50.200;19.038;2023-08-20T05:21:51;25.85;;;23.08;;
19189;SDS011;9727;50.200;19.038;2023-08-20T05:24:21;24.63;;;22.02;;
19189;SDS011;9727;50.200;19.038;2023-08-20T05:26:49;24.90;;;22.25;;
19189;SDS011;9727;50.200;19.038;2023-08-20T05:29:19;25.52;;;22.70;;
19189;SDS011;9727;50.200;19.038;2023-08-20T05:31:45;23.90;;;21.33;;
19189;SDS011;9727;50.200;19.038;2023-08-20T05:34:12;23.65;;;21.17;;
19189;SDS011;9727;50.200;19.038;2023-08-20T05:36:44;22.70;;;20.15;;
19189;SDS011;9727;50.200;19.038;2023-08-20T05:39:13;22.85;;;20.45;;
19189;SDS011;9727;50.200;19.038;2023-08-20T05:41:40;22.95;;;20.52;;
19189;SDS011;9727;50.200;19.038;2023-08-20T05:44:10;23.50;;;20.73;;
19189;SDS011;9727;50.200;19.038;2023-08-20T05:46:40;23.73;;;21.27;;
19189;SDS011;9727;50.200;19.038;2023-08-20T05:49:06;23.25;;;20.35;;
19189;SDS011;9727;50.200;19.038;2023-08-20T05:51:37;21.88;;;19.60;;
19189;SDS011;9727;50.200;19.038;2023-08-20T05:54:04;22.05;;;19.75;;
19189;SDS011;9727;50.200;19.038;2023-08-20T05:56:31;22.48;;;20.02;;
19189;SDS011;9727;50.200;19.038;2023-08-20T05:58:58;21.98;;;19.83;;
19189;SDS011;9727;50.200;19.038;2023-08-20T06:01:26;22.20;;;19.60;;
19189;SDS011;9727;50.200;19.038;2023-08-20T06:03:52;21.80;;;19.55;;
19189;SDS011;9727;50.200;19.038;2023-08-20T06:06:19;23.35;;;20.83;;
19189;SDS011;9727;50.200;19.038;2023-08-20T06:08:45;21.42;;;19.23;;
19189;SDS011;9727;50.200;19.038;2023-08-20T06:11:12;21.73;;;19.58;;
19189;SDS011;9727;50.200;19.038;2023-08-20T06:13:39;26.42;;;21.20;;
19189;SDS011;9727;50.200;19.038;2023-08-20T06:16:06;25.05;;;20.55;;
19189;SDS011;9727;50.200;19.038;2023-08-20T06:18:40;22.42;;;20.05;;
19189;SDS011;9727;50.200;19.038;2023-08-20T06:21:07;23.00;;;20.70;;
19189;SDS011;9727;50.200;19.038;2023-08-20T06:23:40;23.13;;;19.85;;
19189;SDS011;9727;50.200;19.038;2023-08-20T06:26:06;21.10;;;18.90;;
19189;SDS011;9727;50.200;19.038;2023-08-20T06:28:37;22.30;;;19.92;;
19189;SDS011;9727;50.200;19.038;2023-08-20T06:31:04;21.13;;;18.60;;
19189;SDS011;9727;50.200;19.038;2023-08-20T06:33:31;20.42;;;18.38;;
19189;SDS011;9727;50.200;19.038;2023-08-20T06:35:59;21.52;;;17.95;;
19189;SDS011;9727;50.200;19.038;2023-08-20T06:38:25;20.80;;;18.25;;
19189;SDS011;9727;50.200;19.038;2023-08-20T06:40:52;20.58;;;18.48;;
19189;SDS011;9727;50.200;19.038;2023-08-20T06:43:19;21.17;;;17.77;;
19189;SDS011;9727;50.200;19.038;2023-08-20T06:45:45;19.25;;;17.25;;
19189;SDS011;9727;50.200;19.038;2023-08-20T06:48:12;19.05;;;17.05;;
19189;SDS011;9727;50.200;19.038;2023-08-20T06:50:45;19.27;;;17.23;;
19189;SDS011;9727;50.200;19.038;2023-08-20T06:53:13;21.67;;;17.58;;
19189;SDS011;9727;50.200;19.038;2023-08-20T06:55:39;18.05;;;16.25;;
19189;SDS011;9727;50.200;19.038;2023-08-20T06:58:06;17.90;;;16.10;;
19189;SDS011;9727;50.200;19.038;2023-08-20T07:00:32;17.42;;;15.73;;
19189;SDS011;9727;50.200;19.038;2023-08-20T07:03:06;17.98;;;16.13;;
19189;SDS011;9727;50.200;19.038;2023-08-20T07:05:37;22.45;;;16.98;;
19189;SDS011;9727;50.200;19.038;2023-08-20T07:08:04;19.85;;;16.65;;
19189;SDS011;9727;50.200;19.038;2023-08-20T07:10:32;18.27;;;15.30;;
19189;SDS011;9727;50.200;19.038;2023-08-20T07:13:04;16.27;;;14.57;;
19189;SDS011;9727;50.200;19.038;2023-08-20T07:15:30;16.55;;;15.00;;
19189;SDS011;9727;50.200;19.038;2023-08-20T07:17:57;16.88;;;15.10;;
19189;SDS011;9727;50.200;19.038;2023-08-20T07:20:23;17.50;;;15.73;;
19189;SDS011;9727;50.200;19.038;2023-08-20T07:22:50;18.27;;;16.38;;
19189;SDS011;9727;50.200;19.038;2023-08-20T07:25:17;17.88;;;16.05;;
19189;SDS011;9727;50.200;19.038;2023-08-20T07:27:47;17.70;;;15.80;;
19189;SDS011;9727;50.200;19.038;2023-08-20T07:30:14;19.27;;;16.80;;
19189;SDS011;9727;50.200;19.038;2023-08-20T07:32:41;20.13;;;16.40;;
19189;SDS011;9727;50.200;19.038;2023-08-20T07:35:10;17.90;;;16.10;;
19189;SDS011;9727;50.200;19.038;2023-08-20T07:37:37;17.98;;;16.23;;
19189;SDS011;9727;50.200;19.038;2023-08-20T07:40:05;19.38;;;17.35;;
19189;SDS011;9727;50.200;19.038;2023-08-20T07:42:31;18.77;;;16.73;;
19189;SDS011;9727;50.200;19.038;2023-08-20T07:45:07;18.52;;;16.63;;
19189;SDS011;9727;50.200;19.038;2023-08-20T07:47:39;19.90;;;17.15;;
19189;SDS011;9727;50.200;19.038;2023-08-20T07:50:06;17.83;;;16.02;;
19189;SDS011;9727;50.200;19.038;2023-08-20T07:52:37;21.05;;;16.60;;
19189;SDS011;9727;50.200;19.038;2023-08-20T07:55:05;18.33;;;16.40;;
19189;SDS011;9727;50.200;19.038;2023-08-20T07:57:32;19.27;;;17.17;;
19189;SDS011;9727;50.200;19.038;2023-08-20T08:00:07;19.10;;;17.17;;
19189;SDS011;9727;50.200;19.038;2023-08-20T08:02:40;18.60;;;16.67;;
19189;SDS011;9727;50.200;19.038;2023-08-20T08:05:07;19.92;;;17.20;;
19189;SDS011;9727;50.200;19.038;2023-08-20T08:07:38;18.20;;;15.73;;
19189;SDS011;9727;50.200;19.038;2023-08-20T08:10:05;17.60;;;15.77;;
19189;SDS011;9727;50.200;19.038;2023-08-20T08:12:32;16.25;;;14.60;;
19189;SDS011;9727;50.200;19.038;2023-08-20T08:15:06;16.10;;;14.48;;
19189;SDS011;9727;50.200;19.038;2023-08-20T08:17:39;16.60;;;14.85;;
19189;SDS011;9727;50.200;19.038;2023-08-20T08:20:06;17.42;;;15.73;;
19189;SDS011;9727;50.200;19.038;2023-08-20T08:22:39;16.08;;;14.50;;
19189;SDS011;9727;50.200;19.038;2023-08-20T08:25:06;16.15;;;14.40;;
19189;SDS011;9727;50.200;19.038;2023-08-20T08:27:41;16.83;;;15.02;;
19189;SDS011;9727;50.200;19.038;2023-08-20T08:30:09;15.43;;;13.82;;
19189;SDS011;9727;50.200;19.038;2023-08-20T08:32:39;15.65;;;14.20;;
19189;SDS011;9727;50.200;19.038;2023-08-20T08:35:06;15.88;;;14.38;;
19189;SDS011;9727;50.200;19.038;2023-08-20T08:37:42;17.20;;;13.63;;
19189;SDS011;9727;50.200;19.038;2023-08-20T08:40:08;16.25;;;14.23;;
19189;SDS011;9727;50.200;19.038;2023-08-20T08:42:37;15.27;;;13.68;;
19189;SDS011;9727;50.200;19.038;2023-08-20T08:45:05;13.88;;;12.57;;
19189;SDS011;9727;50.200;19.038;2023-08-20T08:47:39;14.85;;;13.45;;
19189;SDS011;9727;50.200;19.038;2023-08-20T08:50:09;15.52;;;13.88;;
19189;SDS011;9727;50.200;19.038;2023-08-20T08:52:39;14.85;;;13.45;;
19189;SDS011;9727;50.200;19.038;2023-08-20T08:55:06;15.55;;;14.07;;
19189;SDS011;9727;50.200;19.038;2023-08-20T08:57:39;14.18;;;12.77;;
19189;SDS011;9727;50.200;19.038;2023-08-20T09:00:06;14.32;;;11.82;;
19189;SDS011;9727;50.200;19.038;2023-08-20T09:05:21;14.10;;;12.70;;
19189;SDS011;9727;50.200;19.038;2023-08-20T09:07:49;13.98;;;12.35;;
19189;SDS011;9727;50.200;19.038;2023-08-20T09:10:21;13.77;;;12.45;;
19189;SDS011;9727;50.200;19.038;2023-08-20T09:12:48;14.20;;;12.70;;
19189;SDS011;9727;50.200;19.038;2023-08-20T09:15:15;14.85;;;13.13;;
19189;SDS011;9727;50.200;19.038;2023-08-20T09:17:41;13.50;;;12.00;;
19189;SDS011;9727;50.200;19.038;2023-08-20T09:20:08;13.30;;;11.90;;
19189;SDS011;9727;50.200;19.038;2023-08-20T09:22:40;11.93;;;10.68;;
19189;SDS011;9727;50.200;19.038;2023-08-20T09:25:15;13.55;;;11.30;;
19189;SDS011;9727;50.200;19.038;2023-08-20T09:27:42;12.50;;;11.20;;
19189;SDS011;9727;50.200;19.038;2023-08-20T09:30:09;12.43;;;11.25;;
19189;SDS011;9727;50.200;19.038;2023-08-20T09:32:38;12.85;;;11.65;;
19189;SDS011;9727;50.200;19.038;2023-08-20T09:35:05;11.98;;;10.77;;
19189;SDS011;9727;50.200;19.038;2023-08-20T09:37:41;13.25;;;11.88;;
19189;SDS011;9727;50.200;19.038;2023-08-20T09:40:11;13.00;;;10.65;;
19189;SDS011;9727;50.200;19.038;2023-08-20T09:42:38;12.18;;;10.93;;
19189;SDS011;9727;50.200;19.038;2023-08-20T09:45:09;12.02;;;10.93;;
19189;SDS011;9727;50.200;19.038;2023-08-20T09:47:38;11.93;;;10.85;;
19189;SDS011;9727;50.200;19.038;2023-08-20T09:50:08;10.88;;;9.13;;
19189;SDS011;9727;50.200;19.038;2023-08-20T09:52:38;10.27;;;9.35;;
19189;SDS011;9727;50.200;19.038;2023-08-20T09:55:06;10.38;;;9.38;;
19189;SDS011;9727;50.200;19.038;2023-08-20T09:57:39;9.50;;;8.65;;
19189;SDS011;9727;50.200;19.038;2023-08-20T10:00:07;9.35;;;8.45;;
19189;SDS011;9727;50.200;19.038;2023-08-20T10:02:41;10.13;;;9.15;;
19189;SDS011;9727;50.200;19.038;2023-08-20T10:05:10;9.93;;;8.85;;
19189;SDS011;9727;50.200;19.038;2023-08-20T10:07:37;9.38;;;8.48;;
19189;SDS011;9727;50.200;19.038;2023-08-20T10:10:04;9.85;;;8.85;;
19189;SDS011;9727;50.200;19.038;2023-08-20T10:12:32;10.60;;;9.43;;
19189;SDS011;9727;50.200;19.038;2023-08-20T10:15:06;10.10;;;8.95;;
19189;SDS011;9727;50.200;19.038;2023-08-20T10:17:37;9.32;;;8.43;;
19189;SDS011;9727;50.200;19.038;2023-08-20T10:20:05;9.45;;;8.43;;
19189;SDS011;9727;50.200;19.038;2023-08-20T10:22:32;9.68;;;8.63;;
19189;SDS011;9727;50.200;19.038;2023-08-20T10:25:05;10.27;;;9.07;;
19189;SDS011;9727;50.200;19.038;2023-08-20T10:27:41;10.38;;;9.38;;
19189;SDS011;9727;50.200;19.038;2023-08-20T10:30:16;11.30;;;10.18;;
19189;SDS011;9727;50.200;19.038;2023-08-20T10:32:43;11.98;;;9.27;;
19189;SDS011;9727;50.200;19.038;2023-08-20T10:35:13;10.80;;;9.52;;
19189;SDS011;9727;50.200;19.038;2023-08-20T10:38:01;10.07;;;9.07;;
19189;SDS011;9727;50.200;19.038;2023-08-20T10:46:04;11.35;;;10.25;;
19189;SDS011;9727;50.200;19.038;2023-08-20T10:48:43;12.65;;;11.40;;
19189;SDS011;9727;50.200;19.038;2023-08-20T10:51:10;10.95;;;9.85;;
19189;SDS011;9727;50.200;19.038;2023-08-20T10:53:40;11.90;;;10.68;;
19189;SDS011;9727;50.200;19.038;2023-08-20T10:56:10;10.15;;;9.23;;
19189;SDS011;9727;50.200;19.038;2023-08-20T10:58:43;9.85;;;8.93;;
19189;SDS011;9727;50.200;19.038;2023-08-20T11:01:21;10.20;;;9.23;;
19189;SDS011;9727;50.200;19.038;2023-08-20T11:03:49;10.55;;;9.45;;
19189;SDS011;9727;50.200;19.038;2023-08-20T11:06:16;10.30;;;9.30;;
19189;SDS011;9727;50.200;19.038;2023-08-20T11:08:42;10.80;;;9.68;;
19189;SDS011;9727;50.200;19.038;2023-08-20T11:11:10;11.60;;;10.40;;
19189;SDS011;9727;50.200;19.038;2023-08-20T11:13:37;10.52;;;9.52;;
19189;SDS011;9727;50.200;19.038;2023-08-20T11:16:07;11.82;;;9.07;;
19189;SDS011;9727;50.200;19.038;2023-08-20T11:18:41;10.25;;;9.23;;
19189;SDS011;9727;50.200;19.038;2023-08-20T11:21:08;9.10;;;8.20;;
19189;SDS011;9727;50.200;19.038;2023-08-20T11:23:45;9.18;;;8.38;;
19189;SDS011;9727;50.200;19.038;2023-08-20T11:26:14;9.93;;;8.80;;
19189;SDS011;9727;50.200;19.038;2023-08-20T11:28:44;11.02;;;9.32;;
19189;SDS011;9727;50.200;19.038;2023-08-20T11:31:11;10.38;;;9.30;;
19189;SDS011;9727;50.200;19.038;2023-08-20T11:33:40;9.52;;;8.68;;
19189;SDS011;9727;50.200;19.038;2023-08-20T11:36:06;9.70;;;8.80;;
19189;SDS011;9727;50.200;19.038;2023-08-20T11:38:39;10.85;;;9.75;;
19189;SDS011;9727;50.200;19.038;2023-08-20T11:41:06;11.05;;;8.85;;
19189;SDS011;9727;50.200;19.038;2023-08-20T11:43:40;9.98;;;8.65;;
19189;SDS011;9727;50.200;19.038;2023-08-20T11:46:12;9.30;;;8.40;;
19189;SDS011;9727;50.200;19.038;2023-08-20T11:48:41;9.85;;;8.90;;
19189;SDS011;9727;50.200;19.038;2023-08-20T11:51:24;9.50;;;8.32;;
19189;SDS011;9727;50.200;19.038;2023-08-20T11:53:50;8.50;;;7.80;;
19189;SDS011;9727;50.200;19.038;2023-08-20T11:56:17;9.25;;;8.45;;
19189;SDS011;9727;50.200;19.038;2023-08-20T11:58:43;9.57;;;8.68;;
19189;SDS011;9727;50.200;19.038;2023-08-20T12:01:15;9.15;;;8.25;;
19189;SDS011;9727;50.200;19.038;2023-08-20T12:03:45;10.55;;;8.48;;
19189;SDS011;9727;50.200;19.038;2023-08-20T12:06:18;8.68;;;7.88;;
19189;SDS011;9727;50.200;19.038;2023-08-20T12:08:44;10.13;;;8.15;;
19189;SDS011;9727;50.200;19.038;2023-08-20T12:11:12;9.00;;;8.20;;
19189;SDS011;9727;50.200;19.038;2023-08-20T12:13:38;9.30;;;8.30;;
19189;SDS011;9727;50.200;19.038;2023-08-20T12:16:05;9.75;;;8.10;;
19189;SDS011;9727;50.200;19.038;2023-08-20T12:18:32;8.75;;;7.95;;
19189;SDS011;9727;50.200;19.038;2023-08-20T12:21:11;8.60;;;7.80;;
19189;SDS011;9727;50.200;19.038;2023-08-20T12:23:40;8.63;;;7.80;;
19189;SDS011;9727;50.200;19.038;2023-08-20T12:26:07;9.60;;;8.20;;
19189;SDS011;9727;50.200;19.038;2023-08-20T12:28:36;8.25;;;7.55;;
19189;SDS011;9727;50.200;19.038;2023-08-20T12:31:03;8.88;;;7.97;;
19189;SDS011;9727;50.200;19.038;2023-08-20T12:33:30;8.82;;;8.02;;
19189;SDS011;9727;50.200;19.038;2023-08-20T12:35:58;9.80;;;8.82;;
19189;SDS011;9727;50.200;19.038;2023-08-20T12:38:26;9.65;;;8.75;;
19189;SDS011;9727;50.200;19.038;2023-08-20T12:41:00;9.77;;;8.77;;
19189;SDS011;9727;50.200;19.038;2023-08-20T12:43:29;10.25;;;8.73;;
19189;SDS011;9727;50.200;19.038;2023-08-20T12:45:56;11.30;;;8.85;;
19189;SDS011;9727;50.200;19.038;2023-08-20T12:48:23;10.95;;;8.50;;
19189;SDS011;9727;50.200;19.038;2023-08-20T12:50:49;9.75;;;8.88;;
19189;SDS011;9727;50.200;19.038;2023-08-20T12:53:16;10.85;;;9.23;;
19189;SDS011;9727;50.200;19.038;2023-08-20T12:55:47;10.45;;;9.35;;
19189;SDS011;9727;50.200;19.038;2023-08-20T12:58:17;9.90;;;9.00;;
19189;SDS011;9727;50.200;19.038;2023-08-20T13:00:44;11.10;;;9.45;;
19189;SDS011;9727;50.200;19.038;2023-08-20T13:03:10;10.82;;;9.57;;
19189;SDS011;9727;50.200;19.038;2023-08-20T13:05:41;11.77;;;9.23;;
19189;SDS011;9727;50.200;19.038;2023-08-20T13:08:08;9.77;;;8.98;;
19189;SDS011;9727;50.200;19.038;2023-08-20T13:10:39;10.52;;;9.52;;
19189;SDS011;9727;50.200;19.038;2023-08-20T13:13:09;10.43;;;9.52;;
19189;SDS011;9727;50.200;19.038;2023-08-20T13:15:39;10.30;;;9.30;;
19189;SDS011;9727;50.200;19.038;2023-08-20T13:18:06;9.50;;;8.60;;
19189;SDS011;9727;50.200;19.038;2023-08-20T13:20:40;9.40;;;8.60;;
19189;SDS011;9727;50.200;19.038;2023-08-20T13:23:07;10.05;;;9.00;;
19189;SDS011;9727;50.200;19.038;2023-08-20T13:25:38;9.77;;;8.88;;
19189;SDS011;9727;50.200;19.038;2023-08-20T13:28:05;10.02;;;9.02;;
19189;SDS011;9727;50.200;19.038;2023-08-20T13:33:21;11.02;;;9.43;;
19189;SDS011;9727;50.200;19.038;2023-08-20T13:35:47;9.85;;;8.95;;
19189;SDS011;9727;50.200;19.038;2023-08-20T13:38:14;9.40;;;8.57;;
19189;SDS011;9727;50.200;19.038;2023-08-20T13:40:41;9.52;;;8.63;;
19189;SDS011;9727;50.200;19.038;2023-08-20T13:43:07;9.20;;;8.30;;
19189;SDS011;9727;50.200;19.038;2023-08-20T13:45:37;12.45;;;8.90;;
19189;SDS011;9727;50.200;19.038;2023-08-20T13:48:05;10.35;;;9.32;;
19189;SDS011;9727;50.200;19.038;2023-08-20T13:50:40;9.63;;;8.82;;
19189;SDS011;9727;50.200;19.038;2023-08-20T13:53:07;9.63;;;8.82;;
19189;SDS011;9727;50.200;19.038;2023-08-20T13:55:36;9.02;;;8.23;;
19189;SDS011;9727;50.200;19.038;2023-08-20T13:58:05;9.40;;;8.50;;
19189;SDS011;9727;50.200;19.038;2023-08-20T14:00:31;9.75;;;8.68;;
19189;SDS011;9727;50.200;19.038;2023-08-20T14:02:58;9.82;;;8.90;;
19189;SDS011;9727;50.200;19.038;2023-08-20T14:05:24;9.82;;;8.98;;
19189;SDS011;9727;50.200;19.038;2023-08-20T14:07:52;9.43;;;8.52;;
19189;SDS011;9727;50.200;19.038;2023-08-20T14:10:19;10.32;;;9.00;;
19189;SDS011;9727;50.200;19.038;2023-08-20T14:12:46;10.05;;;9.02;;
19189;SDS011;9727;50.200;19.038;2023-08-20T14:15:12;9.15;;;7.95;;
19189;SDS011;9727;50.200;19.038;2023-08-20T14:17:39;11.23;;;8.40;;
19189;SDS011;9727;50.200;19.038;2023-08-20T14:20:07;9.38;;;7.97;;
19189;SDS011;9727;50.200;19.038;2023-08-20T14:22:39;8.93;;;8.15;;
19189;SDS011;9727;50.200;19.038;2023-08-20T14:25:07;9.55;;;8.10;;
19189;SDS011;9727;50.200;19.038;2023-08-20T14:27:37;8.93;;;8.00;;
19189;SDS011;9727;50.200;19.038;2023-08-20T14:30:05;8.98;;;8.07;;
19189;SDS011;9727;50.200;19.038;2023-08-20T14:32:36;10.38;;;9.35;;
19189;SDS011;9727;50.200;19.038;2023-08-20T14:35:03;9.90;;;8.90;;
19189;SDS011;9727;50.200;19.038;2023-08-20T14:37:30;9.32;;;7.95;;
19189;SDS011;9727;50.200;19.038;2023-08-20T14:39:57;9.10;;;8.20;;
19189;SDS011;9727;50.200;19.038;2023-08-20T14:42:25;9.00;;;8.20;;
19189;SDS011;9727;50.200;19.038;2023-08-20T14:44:51;8.30;;;7.30;;
19189;SDS011;9727;50.200;19.038;2023-08-20T14:47:19;9.63;;;8.68;;
19189;SDS011;9727;50.200;19.038;2023-08-20T14:49:45;10.02;;;8.57;;